DAL1421 KSFO-KLAX
Flight info
| Callsign | DAL1421 |
|---|---|
| Flight time | N/A |
| Altitude | 35000 |
| Route | WESLA5 SUSEY EBAYE BURGL IRNMN2 |
| Aircraft | A320/M-SDE3FGHIRWY/LB1 |
Departure
| Time | N/A |
|---|---|
| Airport | San Francisco International Airport (KSFO) |
Arrival
| Time | 2026-05-05 13:46 |
|---|---|
| Airport | Los Angeles International Airport (KLAX) |
| Time | Latitude | Longitude | Altitude | Speed | Heading |
|---|---|---|---|---|---|
| 2026-05-05 13:12 | 36.01169 | -120.46225 | 35035 ft | 456 kts | 127° |
| 2026-05-05 13:12 | 35.99086 | -120.43280 | 35034 ft | 456 kts | 127° |
| 2026-05-05 13:12 | 35.94902 | -120.37375 | 35030 ft | 456 kts | 127° |
| 2026-05-05 13:13 | 35.90715 | -120.31471 | 35031 ft | 458 kts | 127° |
| 2026-05-05 13:13 | 35.86277 | -120.25828 | 35023 ft | 463 kts | 139° |
| 2026-05-05 13:14 | 35.80839 | -120.21498 | 35026 ft | 466 kts | 146° |
| 2026-05-05 13:14 | 35.75298 | -120.17335 | 35029 ft | 467 kts | 146° |
| 2026-05-05 13:15 | 35.69761 | -120.13165 | 35027 ft | 467 kts | 146° |
| 2026-05-05 13:15 | 35.64257 | -120.09018 | 35030 ft | 467 kts | 146° |
| 2026-05-05 13:16 | 35.58729 | -120.04835 | 35032 ft | 466 kts | 146° |
| 2026-05-05 13:16 | 35.53200 | -120.00658 | 35030 ft | 466 kts | 147° |
| 2026-05-05 13:17 | 35.47668 | -119.96503 | 35034 ft | 466 kts | 147° |
| 2026-05-05 13:17 | 35.42137 | -119.92345 | 35035 ft | 466 kts | 147° |
| 2026-05-05 13:18 | 35.36615 | -119.88199 | 35032 ft | 465 kts | 147° |
| 2026-05-05 13:18 | 35.31087 | -119.84074 | 35033 ft | 465 kts | 147° |
| 2026-05-05 13:19 | 35.25797 | -119.79553 | 35028 ft | 464 kts | 141° |
| 2026-05-05 13:19 | 35.20676 | -119.74748 | 35024 ft | 464 kts | 141° |
| 2026-05-05 13:20 | 35.15584 | -119.69987 | 35024 ft | 464 kts | 142° |
| 2026-05-05 13:20 | 35.10413 | -119.65162 | 34384 ft | 476 kts | 142° |
| 2026-05-05 13:21 | 35.07755 | -119.62688 | 33255 ft | 482 kts | 141° |
| 2026-05-05 13:21 | 35.05113 | -119.60236 | 32680 ft | 473 kts | 141° |
| 2026-05-05 13:21 | 35.02502 | -119.57818 | 31544 ft | 467 kts | 141° |
| 2026-05-05 13:21 | 34.99972 | -119.55481 | 31102 ft | 446 kts | 140° |
| 2026-05-05 13:22 | 34.97534 | -119.53230 | 30491 ft | 432 kts | 140° |
| 2026-05-05 13:22 | 34.95177 | -119.51051 | 29895 ft | 420 kts | 140° |
| 2026-05-05 13:22 | 34.92883 | -119.48921 | 29320 ft | 411 kts | 140° |
| 2026-05-05 13:22 | 34.90618 | -119.46816 | 28781 ft | 408 kts | 140° |
| 2026-05-05 13:23 | 34.89105 | -119.45427 | 28540 ft | 417 kts | 141° |
| 2026-05-05 13:23 | 34.86752 | -119.43298 | 28084 ft | 423 kts | 142° |
| 2026-05-05 13:23 | 34.84382 | -119.41180 | 27636 ft | 421 kts | 142° |
| 2026-05-05 13:23 | 34.82019 | -119.39082 | 27192 ft | 419 kts | 143° |
| 2026-05-05 13:24 | 34.79674 | -119.37007 | 26750 ft | 415 kts | 143° |
| 2026-05-05 13:24 | 34.77350 | -119.34946 | 26316 ft | 412 kts | 143° |
| 2026-05-05 13:24 | 34.75044 | -119.32895 | 25880 ft | 409 kts | 143° |
| 2026-05-05 13:24 | 34.72748 | -119.30865 | 25448 ft | 407 kts | 144° |
| 2026-05-05 13:25 | 34.70456 | -119.28859 | 25013 ft | 405 kts | 144° |
| 2026-05-05 13:25 | 34.68176 | -119.26870 | 24589 ft | 402 kts | 144° |
| 2026-05-05 13:25 | 34.65912 | -119.24900 | 24170 ft | 399 kts | 144° |
| 2026-05-05 13:25 | 34.63662 | -119.22950 | 23699 ft | 397 kts | 145° |
| 2026-05-05 13:26 | 34.61419 | -119.21011 | 23132 ft | 395 kts | 145° |
| 2026-05-05 13:26 | 34.59190 | -119.19088 | 22635 ft | 391 kts | 145° |
| 2026-05-05 13:26 | 34.56982 | -119.17186 | 22145 ft | 388 kts | 145° |
| 2026-05-05 13:26 | 34.54795 | -119.15292 | 21648 ft | 385 kts | 144° |
| 2026-05-05 13:27 | 34.52663 | -119.13417 | 21170 ft | 382 kts | 144° |
| 2026-05-05 13:27 | 34.50527 | -119.11519 | 20688 ft | 380 kts | 144° |
| 2026-05-05 13:27 | 34.48403 | -119.09629 | 20205 ft | 377 kts | 144° |
| 2026-05-05 13:27 | 34.46293 | -119.07754 | 19730 ft | 375 kts | 144° |
| 2026-05-05 13:28 | 34.44196 | -119.05892 | 19254 ft | 373 kts | 144° |
| 2026-05-05 13:28 | 34.42101 | -119.04050 | 18787 ft | 371 kts | 144° |
| 2026-05-05 13:28 | 34.40004 | -119.02235 | 18325 ft | 369 kts | 145° |
| 2026-05-05 13:28 | 34.37916 | -119.00441 | 17804 ft | 368 kts | 145° |
| 2026-05-05 13:29 | 34.35843 | -118.98654 | 17336 ft | 364 kts | 145° |
| 2026-05-05 13:29 | 34.33785 | -118.96878 | 16857 ft | 362 kts | 145° |
| 2026-05-05 13:29 | 34.31749 | -118.95079 | 16382 ft | 361 kts | 144° |
| 2026-05-05 13:29 | 34.29738 | -118.93257 | 15763 ft | 363 kts | 144° |
| 2026-05-05 13:30 | 34.27751 | -118.91436 | 15412 ft | 354 kts | 143° |
| 2026-05-05 13:30 | 34.25796 | -118.89641 | 14602 ft | 351 kts | 144° |
| 2026-05-05 13:30 | 34.23868 | -118.87865 | 13931 ft | 347 kts | 143° |
| 2026-05-05 13:30 | 34.21948 | -118.86090 | 13331 ft | 348 kts | 143° |
| 2026-05-05 13:31 | 34.20104 | -118.84386 | 13131 ft | 338 kts | 143° |
| 2026-05-05 13:31 | 34.18265 | -118.82691 | 12982 ft | 327 kts | 144° |
| 2026-05-05 13:31 | 34.16493 | -118.81057 | 12852 ft | 317 kts | 143° |
| 2026-05-05 13:31 | 34.14804 | -118.79369 | 12579 ft | 312 kts | 140° |
| 2026-05-05 13:32 | 34.13196 | -118.77633 | 12330 ft | 308 kts | 139° |
| 2026-05-05 13:32 | 34.11625 | -118.75883 | 12021 ft | 306 kts | 138° |
| 2026-05-05 13:32 | 34.10087 | -118.74162 | 11715 ft | 305 kts | 138° |
| 2026-05-05 13:32 | 34.08531 | -118.72434 | 11405 ft | 303 kts | 138° |
| 2026-05-05 13:33 | 34.06978 | -118.70723 | 11098 ft | 302 kts | 139° |
| 2026-05-05 13:33 | 34.05443 | -118.69046 | 10906 ft | 294 kts | 139° |
| 2026-05-05 13:33 | 34.04027 | -118.67289 | 10537 ft | 292 kts | 126° |
| 2026-05-05 13:33 | 34.03071 | -118.65169 | 10224 ft | 287 kts | 109° |
| 2026-05-05 13:34 | 34.02637 | -118.62836 | 9920 ft | 285 kts | 96° |
| 2026-05-05 13:34 | 34.02422 | -118.60448 | 9604 ft | 285 kts | 96° |
| 2026-05-05 13:34 | 34.02201 | -118.58090 | 9315 ft | 283 kts | 96° |
| 2026-05-05 13:34 | 34.01974 | -118.55740 | 9022 ft | 281 kts | 96° |
| 2026-05-05 13:35 | 34.01751 | -118.53387 | 8460 ft | 288 kts | 96° |
| 2026-05-05 13:35 | 34.01542 | -118.51166 | 8008 ft | 289 kts | 96° |
| 2026-05-05 13:35 | 34.01315 | -118.48771 | 7703 ft | 284 kts | 96° |
| 2026-05-05 13:35 | 34.01106 | -118.46444 | 7560 ft | 276 kts | 92° |
| 2026-05-05 13:36 | 34.01262 | -118.44206 | 7315 ft | 275 kts | 78° |
| 2026-05-05 13:36 | 34.01630 | -118.42082 | 6964 ft | 273 kts | 77° |
| 2026-05-05 13:36 | 34.02020 | -118.39857 | 6613 ft | 270 kts | 77° |
| 2026-05-05 13:36 | 34.02405 | -118.37652 | 6270 ft | 268 kts | 77° |
| 2026-05-05 13:37 | 34.02776 | -118.35455 | 6015 ft | 265 kts | 79° |
| 2026-05-05 13:37 | 34.03053 | -118.33261 | 5997 ft | 266 kts | 82° |
| 2026-05-05 13:37 | 34.03263 | -118.31245 | 5994 ft | 266 kts | 83° |
| 2026-05-05 13:37 | 34.03482 | -118.29029 | 5995 ft | 266 kts | 83° |
| 2026-05-05 13:38 | 34.03706 | -118.26815 | 5896 ft | 267 kts | 82° |
| 2026-05-05 13:38 | 34.03931 | -118.24643 | 5711 ft | 257 kts | 82° |
| 2026-05-05 13:38 | 34.04154 | -118.22540 | 5520 ft | 247 kts | 82° |
| 2026-05-05 13:38 | 34.04373 | -118.20518 | 5388 ft | 243 kts | 82° |
| 2026-05-05 13:39 | 34.04596 | -118.18488 | 5257 ft | 242 kts | 82° |
| 2026-05-05 13:39 | 34.04817 | -118.16477 | 5106 ft | 242 kts | 83° |
| 2026-05-05 13:39 | 34.04776 | -118.14468 | 4897 ft | 240 kts | 106° |
| 2026-05-05 13:39 | 34.03953 | -118.12770 | 4701 ft | 237 kts | 139° |
| 2026-05-05 13:40 | 34.02540 | -118.11853 | 4490 ft | 228 kts | 166° |
| 2026-05-05 13:40 | 34.01011 | -118.11444 | 4285 ft | 222 kts | 171° |
| 2026-05-05 13:40 | 33.99506 | -118.11213 | 4082 ft | 215 kts | 187° |
| 2026-05-05 13:40 | 33.98218 | -118.11901 | 3976 ft | 198 kts | 232° |
| 2026-05-05 13:41 | 33.97795 | -118.13359 | 4001 ft | 188 kts | 272° |
| 2026-05-05 13:41 | 33.97784 | -118.14971 | 4008 ft | 194 kts | 264° |
| 2026-05-05 13:41 | 33.97609 | -118.16594 | 3957 ft | 196 kts | 263° |
| 2026-05-05 13:41 | 33.97437 | -118.18216 | 3752 ft | 195 kts | 263° |
| 2026-05-05 13:42 | 33.97271 | -118.19840 | 3509 ft | 195 kts | 263° |
| 2026-05-05 13:42 | 33.97108 | -118.21457 | 3259 ft | 194 kts | 263° |
| 2026-05-05 13:42 | 33.96948 | -118.23049 | 2995 ft | 194 kts | 263° |
| 2026-05-05 13:42 | 33.96783 | -118.24678 | 2769 ft | 191 kts | 263° |
| 2026-05-05 13:43 | 33.96629 | -118.26206 | 2486 ft | 180 kts | 263° |
| 2026-05-05 13:43 | 33.96484 | -118.27643 | 2242 ft | 168 kts | 263° |
| 2026-05-05 13:43 | 33.96347 | -118.29000 | 2013 ft | 158 kts | 263° |
| 2026-05-05 13:43 | 33.96220 | -118.30255 | 1821 ft | 145 kts | 263° |
| 2026-05-05 13:44 | 33.96101 | -118.31421 | 1623 ft | 139 kts | 264° |
| 2026-05-05 13:44 | 33.95984 | -118.32583 | 1440 ft | 138 kts | 264° |
| 2026-05-05 13:44 | 33.95871 | -118.33695 | 1247 ft | 136 kts | 264° |
| 2026-05-05 13:44 | 33.95755 | -118.34833 | 1057 ft | 136 kts | 263° |
| 2026-05-05 13:45 | 33.95640 | -118.35965 | 868 ft | 136 kts | 263° |
| 2026-05-05 13:45 | 33.95527 | -118.37088 | 704 ft | 134 kts | 263° |
| 2026-05-05 13:45 | 33.95415 | -118.38201 | 512 ft | 133 kts | 262° |
| 2026-05-05 13:45 | 33.95298 | -118.39298 | 310 ft | 131 kts | 263° |
| 2026-05-05 13:46 | 33.95190 | -118.40378 | 147 ft | 129 kts | 262° |
| 2026-05-05 13:46 | 33.95090 | -118.41363 | 106 ft | 92 kts | 263° |
| 2026-05-05 13:46 | 33.95044 | -118.41807 | 108 ft | 34 kts | 263° |
| 2026-05-05 13:46 | 33.95013 | -118.42049 | 107 ft | 26 kts | 253° |
| 2026-05-05 13:47 | 33.94939 | -118.42194 | 105 ft | 16 kts | 224° |
| 2026-05-05 13:47 | 33.94839 | -118.42277 | 107 ft | 17 kts | 192° |
| 2026-05-05 13:47 | 33.94715 | -118.42269 | 101 ft | 19 kts | 159° |
| 2026-05-05 13:47 | 33.94694 | -118.42122 | 98 ft | 19 kts | 81° |
| 2026-05-05 13:48 | 33.94711 | -118.41972 | 98 ft | 17 kts | 82° |
| 2026-05-05 13:48 | 33.94724 | -118.41834 | 98 ft | 16 kts | 84° |
| 2026-05-05 13:48 | 33.94736 | -118.41706 | 98 ft | 15 kts | 83° |
| 2026-05-05 13:48 | 33.94748 | -118.41591 | 100 ft | 13 kts | 83° |
| 2026-05-05 13:49 | 33.94759 | -118.41490 | 99 ft | 12 kts | 82° |
| 2026-05-05 13:49 | 33.94776 | -118.41395 | 102 ft | 13 kts | 69° |
| 2026-05-05 13:49 | 33.94791 | -118.41299 | 100 ft | 11 kts | 84° |
| 2026-05-05 13:49 | 33.94801 | -118.41204 | 100 ft | 15 kts | 82° |
| 2026-05-05 13:50 | 33.94816 | -118.41061 | 101 ft | 16 kts | 83° |
| 2026-05-05 13:50 | 33.94829 | -118.40929 | 100 ft | 15 kts | 82° |
| 2026-05-05 13:50 | 33.94842 | -118.40807 | 100 ft | 14 kts | 83° |
| 2026-05-05 13:50 | 33.94855 | -118.40694 | 100 ft | 13 kts | 81° |
| 2026-05-05 13:51 | 33.94848 | -118.40611 | 99 ft | 9 kts | 137° |
| 2026-05-05 13:51 | 33.94779 | -118.40586 | 98 ft | 11 kts | 167° |
| 2026-05-05 13:51 | 33.94702 | -118.40573 | 95 ft | 11 kts | 173° |
| 2026-05-05 13:51 | 33.94655 | -118.40572 | 95 ft | 5 kts | 203° |
| 2026-05-05 13:52 | 33.94645 | -118.40601 | 95 ft | 3 kts | 261° |
| 2026-05-05 13:52 | 33.94643 | -118.40624 | 95 ft | 2 kts | 262° |
| 2026-05-05 13:52 | 33.94641 | -118.40638 | 95 ft | 1 kts | 263° |
| 2026-05-05 13:52 | 33.94641 | -118.40643 | 95 ft | 2 kts | 263° |
| 2026-05-05 13:53 | 33.94640 | -118.40651 | 95 ft | 0 kts | 263° |